Time;durP1;ratioP1;P1;durP2;ratioP2;P2;SDS_P1;SDS_P2;PMS_P1;PMS_P2;Temp;Humidity;BMP_temperature;BMP_pressure;BME280_temperature;BME280_humidity;BME280_pressure;Samples;Min_cycle;Max_cycle;Signal;HPM_P1;HPM_P2
2023/01/12 00:01:50;;;;;;;0.80;0.80;;;19.80;59.70;;;;;;4936639;29;20253;-66
2023/01/12 00:04:16;;;;;;;0.90;0.75;;;19.80;59.70;;;;;;4952679;29;20273;-66
2023/01/12 00:06:43;;;;;;;1.30;0.75;;;19.80;59.70;;;;;;4960697;28;20250;-66
2023/01/12 00:09:09;;;;;;;1.67;0.90;;;19.80;59.70;;;;;;4968117;28;20213;-67
2023/01/12 00:11:36;;;;;;;1.15;0.75;;;19.80;59.70;;;;;;4952267;29;20198;-66
2023/01/12 00:14:07;;;;;;;1.23;1.10;;;19.80;59.70;;;;;;4933490;29;20216;-66
2023/01/12 00:16:42;;;;;;;1.23;0.90;;;19.80;59.70;;;;;;4932963;29;20187;-66
2023/01/12 00:19:14;;;;;;;1.15;0.75;;;19.80;59.70;;;;;;4941002;29;20261;-66
2023/01/12 00:24:18;;;;;;;1.50;0.90;;;19.80;59.70;;;;;;4955181;29;20218;-66
2023/01/12 00:26:48;;;;;;;1.00;0.88;;;19.80;59.70;;;;;;4955789;29;20194;-66
2023/01/12 00:29:16;;;;;;;1.55;0.80;;;19.80;59.70;;;;;;4955355;29;20224;-66
2023/01/12 00:31:42;;;;;;;1.08;0.93;;;19.80;59.60;;;;;;4955712;29;20283;-66
2023/01/12 00:34:10;;;;;;;1.38;1.00;;;19.80;59.60;;;;;;4955853;29;20197;-66
2023/01/12 00:36:35;;;;;;;4.63;1.13;;;19.80;59.60;;;;;;4939869;29;20200;-66
2023/01/12 00:39:02;;;;;;;1.15;0.75;;;19.80;59.60;;;;;;4955322;29;20293;-66
2023/01/12 00:46:56;;;;;;;1.48;0.80;;;19.80;59.60;;;;;;4956525;29;20547;-66
2023/01/12 00:49:22;;;;;;;1.08;0.90;;;19.80;59.60;;;;;;4939042;29;20206;-66
2023/01/12 00:51:48;;;;;;;1.23;0.85;;;19.80;59.70;;;;;;4955471;29;20190;-66
2023/01/12 00:54:13;;;;;;;2.70;0.95;;;19.80;59.60;;;;;;4955190;29;20199;-66
2023/01/12 00:56:39;;;;;;;1.40;0.98;;;19.80;59.60;;;;;;4963146;28;20190;-66
2023/01/12 00:59:05;;;;;;;1.50;1.00;;;19.80;59.70;;;;;;4939198;29;20214;-66
2023/01/12 01:01:33;;;;;;;1.90;1.17;;;19.80;59.60;;;;;;4935929;29;20206;-66
2023/01/12 01:03:59;;;;;;;1.15;0.90;;;19.80;59.60;;;;;;4954404;29;20631;-66
2023/01/12 01:06:25;;;;;;;0.88;0.88;;;19.80;59.70;;;;;;4987514;28;20595;-66
2023/01/12 01:08:51;;;;;;;0.95;0.90;;;19.80;59.60;;;;;;4953255;29;20225;-66
2023/01/12 01:11:17;;;;;;;1.00;0.80;;;19.80;59.60;;;;;;4970999;28;20190;-67
2023/01/12 01:13:43;;;;;;;1.25;0.88;;;19.80;59.70;;;;;;4987292;28;20190;-66
2023/01/12 01:16:15;;;;;;;1.23;0.80;;;19.80;59.60;;;;;;4954923;29;20194;-64
2023/01/12 01:18:41;;;;;;;1.02;0.90;;;19.80;59.60;;;;;;4962754;28;20277;-66
2023/01/12 01:21:10;;;;;;;1.00;0.85;;;19.80;59.60;;;;;;4954855;29;20198;-66
2023/01/12 01:23:37;;;;;;;1.38;0.90;;;19.80;59.60;;;;;;4954637;29;20293;-66
2023/01/12 01:26:17;;;;;;;1.08;0.68;;;19.80;59.60;;;;;;4962750;28;20187;-66
2023/01/12 01:28:43;;;;;;;1.75;0.93;;;19.80;59.70;;;;;;4954039;29;20228;-67
2023/01/12 01:31:16;;;;;;;1.10;1.00;;;19.80;59.60;;;;;;4954850;29;20195;-66
2023/01/12 01:33:43;;;;;;;1.00;0.90;;;19.80;59.60;;;;;;4938389;29;20198;-67
2023/01/12 01:36:10;;;;;;;1.05;0.63;;;19.80;59.70;;;;;;4970570;28;20249;-67
2023/01/12 01:38:36;;;;;;;0.60;0.60;;;19.80;59.60;;;;;;4954094;29;20210;-67
2023/01/12 01:41:04;;;;;;;1.48;0.75;;;19.80;59.60;;;;;;4954048;29;20194;-67
2023/01/12 01:43:52;;;;;;;1.40;0.82;;;19.80;59.60;;;;;;4954340;29;20225;-66
2023/01/12 01:46:49;;;;;;;1.20;0.90;;;19.80;59.60;;;;;;4964584;28;20222;-66
2023/01/12 01:49:30;;;;;;;0.98;0.75;;;19.80;59.60;;;;;;4970391;28;20210;-66
2023/01/12 01:52:03;;;;;;;1.48;1.08;;;19.80;59.60;;;;;;4954135;29;20198;-64
2023/01/12 01:54:40;;;;;;;1.23;0.80;;;19.80;59.60;;;;;;4954331;29;20194;-66
2023/01/12 01:57:07;;;;;;;0.98;0.93;;;19.80;59.60;;;;;;4954355;29;20284;-66
2023/01/12 01:59:36;;;;;;;1.55;0.80;;;19.80;59.60;;;;;;4986060;28;20202;-66
2023/01/12 02:02:03;;;;;;;1.77;0.93;;;19.80;59.60;;;;;;4986450;28;20186;-66
2023/01/12 02:04:30;;;;;;;1.58;0.70;;;19.80;59.60;;;;;;4955381;29;20241;-66
2023/01/12 02:06:58;;;;;;;1.95;0.80;;;19.80;59.60;;;;;;4937053;29;20207;-66
2023/01/12 02:09:26;;;;;;;0.98;0.82;;;19.80;59.60;;;;;;4937578;29;20596;-66
2023/01/12 02:18:09;;;;;;;0.98;0.80;;;19.80;59.40;;;;;;4953936;29;20194;-66
2023/01/12 02:21:29;;;;;;;2.35;0.80;;;19.80;59.60;;;;;;4934558;29;20203;-65
2023/01/12 02:24:33;;;;;;;1.13;0.90;;;19.80;59.50;;;;;;4973207;28;20270;-66
2023/01/12 02:27:53;;;;;;;1.00;0.80;;;19.80;59.60;;;;;;4952155;29;20286;-66
2023/01/12 02:30:32;;;;;;;1.33;0.80;;;19.80;59.60;;;;;;4969514;28;20195;-66
2023/01/12 02:33:28;;;;;;;1.60;1.10;;;19.80;59.60;;;;;;4985647;28;20273;-66
2023/01/12 02:36:06;;;;;;;1.13;0.80;;;19.80;59.60;;;;;;4953211;29;20209;-66
2023/01/12 02:38:46;;;;;;;1.75;0.80;;;19.80;59.50;;;;;;4937059;29;20210;-66
2023/01/12 02:44:55;;;;;;;4.70;1.17;;;19.80;59.60;;;;;;4953479;29;20296;-66
2023/01/12 02:48:01;;;;;;;1.40;0.80;;;19.80;59.50;;;;;;4954183;29;20186;-66
2023/01/12 02:50:43;;;;;;;3.13;1.13;;;19.80;59.60;;;;;;4985570;28;20194;-66
2023/01/12 02:53:42;;;;;;;0.98;0.80;;;19.80;59.60;;;;;;4953275;29;20186;-66
2023/01/12 02:56:17;;;;;;;1.95;1.00;;;19.80;59.60;;;;;;4985460;28;20187;-66
2023/01/12 02:58:53;;;;;;;0.90;0.77;;;19.80;59.60;;;;;;4946180;28;20217;-66
2023/01/12 03:01:21;;;;;;;1.38;0.77;;;19.80;59.60;;;;;;4978743;28;20182;-66
2023/01/12 03:03:49;;;;;;;1.63;1.10;;;19.80;59.50;;;;;;4952876;29;20210;-66
2023/01/12 03:06:17;;;;;;;1.92;0.90;;;19.80;59.50;;;;;;4937040;29;20190;-66
2023/01/12 03:08:46;;;;;;;1.73;0.70;;;19.80;59.50;;;;;;4933374;29;20215;-66
2023/01/12 03:11:21;;;;;;;1.20;1.00;;;19.80;59.50;;;;;;4954108;28;20277;-66
2023/01/12 03:13:58;;;;;;;1.75;0.90;;;19.80;59.60;;;;;;4951689;29;20221;-66
2023/01/12 03:16:32;;;;;;;1.75;0.80;;;19.80;59.60;;;;;;4952814;29;20194;-66
2023/01/12 03:19:12;;;;;;;1.30;0.70;;;19.80;59.60;;;;;;4968730;28;20345;-66
2023/01/12 03:21:44;;;;;;;1.73;0.75;;;19.80;59.50;;;;;;4952811;29;20190;-66
2023/01/12 03:24:20;;;;;;;1.67;0.90;;;19.80;60.10;;;;;;4954271;28;20703;-66
2023/01/12 03:26:52;;;;;;;1.08;0.93;;;19.80;59.50;;;;;;4953730;28;20280;-65
2023/01/12 03:29:26;;;;;;;2.55;0.90;;;19.80;59.50;;;;;;4952298;29;20222;-66
2023/01/12 03:31:53;;;;;;;1.40;0.80;;;19.80;59.50;;;;;;4936898;29;20194;-66
2023/01/12 03:34:20;;;;;;;1.10;0.70;;;19.80;59.50;;;;;;4968809;28;20195;-66
2023/01/12 03:37:26;;;;;;;2.17;0.80;;;19.80;59.50;;;;;;4936506;29;20660;-65
2023/01/12 03:40:15;;;;;;;0.88;0.80;;;19.80;59.50;;;;;;4953627;28;20695;-66
2023/01/12 03:43:05;;;;;;;2.13;1.10;;;19.80;59.50;;;;;;4953885;28;20322;-66
2023/01/12 03:45:45;;;;;;;1.17;0.88;;;19.80;59.50;;;;;;4952605;29;20253;-66
2023/01/12 03:48:30;;;;;;;2.10;0.80;;;19.80;59.50;;;;;;4952360;29;20292;-66
2023/01/12 03:51:08;;;;;;;1.00;0.90;;;19.80;59.50;;;;;;4953741;28;20198;-66
2023/01/12 03:53:37;;;;;;;2.05;0.80;;;19.80;59.50;;;;;;4936767;29;20193;-66
2023/01/12 03:56:08;;;;;;;0.93;0.60;;;19.80;59.60;;;;;;4936773;29;20187;-66
2023/01/12 03:58:35;;;;;;;1.27;0.70;;;19.80;59.60;;;;;;4978872;28;20206;-65
2023/01/12 04:01:03;;;;;;;1.15;0.70;;;19.80;59.60;;;;;;4972218;28;20726;-66
2023/01/12 04:03:29;;;;;;;2.28;0.90;;;19.80;59.50;;;;;;4988465;28;20218;-66
2023/01/12 04:05:55;;;;;;;1.48;0.90;;;19.80;59.50;;;;;;4956428;29;20281;-66
2023/01/12 04:08:21;;;;;;;1.17;0.88;;;19.80;59.60;;;;;;4940031;29;20202;-65
2023/01/12 04:10:47;;;;;;;1.63;0.73;;;19.80;59.50;;;;;;4956091;29;20579;-66
2023/01/12 04:13:13;;;;;;;0.95;0.70;;;19.80;59.50;;;;;;4955908;29;20182;-66
2023/01/12 04:15:41;;;;;;;2.00;1.05;;;19.80;59.60;;;;;;4955923;29;20233;-66
2023/01/12 04:18:08;;;;;;;1.35;0.85;;;19.80;59.60;;;;;;4955539;29;20268;-66
2023/01/12 04:20:35;;;;;;;2.53;0.98;;;19.80;59.50;;;;;;4971859;28;20395;-66
2023/01/12 04:23:01;;;;;;;1.02;0.88;;;19.80;59.50;;;;;;5004618;28;20187;-66
2023/01/12 04:25:27;;;;;;;1.13;0.77;;;19.80;59.50;;;;;;4941972;29;20186;-66
2023/01/12 04:30:46;;;;;;;2.20;0.85;;;19.80;59.50;;;;;;4955346;28;20282;-71
2023/01/12 04:33:12;;;;;;;1.42;0.80;;;19.80;59.50;;;;;;4971590;28;20210;-71
2023/01/12 04:35:38;;;;;;;1.70;0.88;;;19.80;59.50;;;;;;4939590;29;20201;-71
2023/01/12 04:38:08;;;;;;;1.40;0.80;;;19.80;59.50;;;;;;4955230;29;20198;-71
2023/01/12 04:40:33;;;;;;;0.73;0.65;;;19.80;59.50;;;;;;4955777;29;20567;-71
2023/01/12 04:42:59;;;;;;;1.90;1.10;;;19.80;59.50;;;;;;4939258;29;20281;-71
2023/01/12 04:45:25;;;;;;;2.10;1.00;;;19.80;59.50;;;;;;4971471;28;20191;-71
2023/01/12 04:47:51;;;;;;;2.50;1.05;;;19.80;59.50;;;;;;4971259;28;20250;-71
2023/01/12 04:50:17;;;;;;;2.42;0.70;;;19.80;59.50;;;;;;4958753;28;20213;-71
2023/01/12 04:52:44;;;;;;;1.42;0.75;;;19.80;59.50;;;;;;4958716;28;20182;-71
2023/01/12 04:55:10;;;;;;;1.95;0.95;;;19.80;59.50;;;;;;4972952;28;20195;-71
2023/01/12 04:57:36;;;;;;;1.63;0.80;;;19.80;59.50;;;;;;4963110;28;20659;-71
2023/01/12 05:00:04;;;;;;;0.88;0.70;;;19.80;59.50;;;;;;4964109;28;20210;-71
2023/01/12 05:02:29;;;;;;;1.38;0.98;;;19.80;59.50;;;;;;4971282;28;20201;-71
2023/01/12 05:04:55;;;;;;;2.28;1.15;;;19.80;59.50;;;;;;4955655;28;20218;-71
2023/01/12 05:07:21;;;;;;;1.10;0.90;;;19.80;59.40;;;;;;4970135;28;20182;-71
2023/01/12 05:12:32;;;;;;;1.65;0.80;;;19.80;59.50;;;;;;4956134;29;20183;-71
2023/01/12 05:14:57;;;;;;;1.80;1.00;;;19.80;59.50;;;;;;4939192;29;20309;-71
2023/01/12 05:17:23;;;;;;;2.67;1.00;;;19.80;59.50;;;;;;4975202;28;20273;-71
2023/01/12 05:19:49;;;;;;;0.80;0.70;;;19.80;59.50;;;;;;4974414;28;20209;-71
2023/01/12 05:22:15;;;;;;;1.10;0.70;;;19.80;59.50;;;;;;4970816;28;20241;-71
2023/01/12 05:24:41;;;;;;;3.05;1.10;;;19.80;59.50;;;;;;4963873;28;20245;-71
2023/01/12 05:27:07;;;;;;;1.35;1.00;;;19.80;59.50;;;;;;4972632;28;20229;-71
2023/01/12 05:29:32;;;;;;;1.40;0.65;;;19.80;59.50;;;;;;4949479;28;20209;-71
2023/01/12 05:31:58;;;;;;;1.23;1.13;;;19.80;59.50;;;;;;4948922;28;20193;-71
2023/01/12 05:34:24;;;;;;;1.30;1.10;;;19.80;59.50;;;;;;4970755;28;20190;-71
2023/01/12 05:36:49;;;;;;;2.00;0.90;;;19.80;59.40;;;;;;4986138;28;20253;-71
2023/01/12 05:39:15;;;;;;;2.17;1.05;;;19.80;59.40;;;;;;4970415;28;20210;-71
2023/01/12 05:43:48;;;;;;;2.33;0.90;;;19.80;59.50;;;;;;4970417;28;20190;-71
2023/01/12 05:44:27;;;;;;;1.85;0.90;;;19.80;59.40;;;;;;4962175;28;20237;-71
2023/01/12 05:46:52;;;;;;;2.58;1.10;;;19.80;59.40;;;;;;4955440;29;20678;-71
2023/01/12 05:49:18;;;;;;;1.33;0.98;;;19.80;59.40;;;;;;4969937;28;20214;-71
2023/01/12 05:51:44;;;;;;;1.13;1.00;;;19.80;59.50;;;;;;4970365;28;20202;-71
2023/01/12 05:54:09;;;;;;;1.60;0.90;;;19.80;59.40;;;;;;4954007;29;20281;-71
2023/01/12 05:56:35;;;;;;;1.88;1.00;;;19.80;59.40;;;;;;4970172;28;20205;-71
2023/01/12 05:59:03;;;;;;;1.20;0.98;;;19.80;59.40;;;;;;4947452;28;20210;-71
2023/01/12 06:01:30;;;;;;;1.38;1.00;;;19.80;59.40;;;;;;4958561;28;20274;-71
2023/01/12 06:03:59;;;;;;;2.03;0.98;;;19.80;59.40;;;;;;4969428;28;20210;-71
2023/01/12 06:06:29;;;;;;;1.50;1.00;;;19.80;59.50;;;;;;4954162;29;20206;-72
2023/01/12 06:08:56;;;;;;;1.95;0.90;;;19.80;59.50;;;;;;4969610;28;20206;-71
2023/01/12 06:14:08;;;;;;;2.47;0.88;;;19.80;59.50;;;;;;4953396;29;20201;-71
2023/01/12 06:16:38;;;;;;;1.48;0.95;;;19.80;59.40;;;;;;4966939;28;20190;-70
2023/01/12 06:19:04;;;;;;;2.80;1.02;;;19.80;59.50;;;;;;4955514;28;20600;-71
2023/01/12 06:21:32;;;;;;;1.27;0.90;;;19.80;59.50;;;;;;4968767;28;20191;-71
2023/01/12 06:23:58;;;;;;;1.33;1.20;;;19.80;59.40;;;;;;4969446;28;20722;-71
2023/01/12 06:26:23;;;;;;;1.33;0.80;;;19.80;59.50;;;;;;4956484;28;20266;-71
2023/01/12 06:28:50;;;;;;;1.85;1.08;;;19.80;59.50;;;;;;4980641;28;20237;-71
2023/01/12 06:31:16;;;;;;;1.08;0.90;;;19.80;59.50;;;;;;4973844;28;20281;-71
2023/01/12 06:33:42;;;;;;;2.67;1.00;;;19.80;59.40;;;;;;4974543;28;20618;-71
2023/01/12 06:36:09;;;;;;;1.65;0.82;;;19.80;59.50;;;;;;4961119;28;20208;-70
2023/01/12 06:38:39;;;;;;;1.75;1.02;;;19.80;59.40;;;;;;4968934;28;20217;-71
2023/01/12 06:42:27;;;;;;;2.22;1.27;;;19.80;59.40;;;;;;4954523;28;20226;-72
2023/01/12 06:43:55;;;;;;;1.67;0.80;;;19.80;59.40;;;;;;4969973;28;20272;-72
2023/01/12 06:46:21;;;;;;;1.60;0.88;;;19.80;59.50;;;;;;4980587;28;20289;-72
2023/01/12 06:48:47;;;;;;;1.95;1.00;;;19.80;60.10;;;;;;4988189;28;20209;-71
2023/01/12 06:51:13;;;;;;;2.22;1.15;;;19.80;59.50;;;;;;4978577;28;20581;-72
2023/01/12 06:53:38;;;;;;;2.35;0.98;;;19.80;59.50;;;;;;4954253;28;20253;-72
2023/01/12 06:56:04;;;;;;;1.95;0.90;;;19.80;59.50;;;;;;4969138;28;20190;-72
2023/01/12 06:58:30;;;;;;;3.15;1.20;;;19.80;59.50;;;;;;4944973;29;20317;-72
2023/01/12 07:01:03;;;;;;;3.28;0.90;;;19.80;59.50;;;;;;4937637;29;20724;-72
2023/01/12 07:03:29;;;;;;;1.17;0.90;;;19.80;59.50;;;;;;4958427;28;20239;-72
2023/01/12 07:05:59;;;;;;;1.10;0.80;;;19.80;59.50;;;;;;4978007;28;20266;-71
2023/01/12 07:08:26;;;;;;;1.73;1.00;;;19.80;59.50;;;;;;4980608;28;20210;-71
2023/01/12 07:10:52;;;;;;;2.05;1.00;;;19.80;59.50;;;;;;4973500;28;20190;-71
2023/01/12 07:13:18;;;;;;;1.58;0.88;;;19.80;59.50;;;;;;4985083;28;20200;-71
2023/01/12 07:15:44;;;;;;;1.45;1.00;;;19.80;59.50;;;;;;4944907;29;20233;-71
2023/01/12 07:18:10;;;;;;;2.22;1.00;;;19.80;59.50;;;;;;4978655;28;20230;-71
2023/01/12 07:20:36;;;;;;;1.55;0.90;;;19.80;59.50;;;;;;4983346;28;20198;-71
2023/01/12 07:23:01;;;;;;;1.48;1.10;;;19.80;59.40;;;;;;4960940;28;20198;-71
2023/01/12 07:25:27;;;;;;;1.52;0.80;;;19.80;59.50;;;;;;4964730;28;20232;-71
2023/01/12 07:27:57;;;;;;;1.48;0.82;;;19.80;59.50;;;;;;4964476;28;20256;-72
2023/01/12 07:30:25;;;;;;;2.88;0.80;;;19.80;59.40;;;;;;4963885;28;20285;-72
2023/01/12 07:32:52;;;;;;;1.90;0.95;;;19.80;59.50;;;;;;4959739;28;20194;-72
2023/01/12 07:35:18;;;;;;;3.13;1.00;;;19.80;59.40;;;;;;4973643;28;20285;-71
2023/01/12 07:37:49;;;;;;;1.70;1.00;;;19.80;59.50;;;;;;4980778;28;20198;-71
2023/01/12 07:40:15;;;;;;;1.67;1.05;;;19.80;59.50;;;;;;4947890;29;20222;-71
2023/01/12 07:42:41;;;;;;;3.53;1.25;;;19.80;59.50;;;;;;4964006;28;20289;-71
2023/01/12 07:45:07;;;;;;;1.95;1.00;;;19.80;59.50;;;;;;4972181;28;20232;-71
2023/01/12 07:47:33;;;;;;;1.73;1.00;;;19.80;59.50;;;;;;4969072;28;20191;-71
2023/01/12 07:49:58;;;;;;;2.28;1.00;;;19.80;59.50;;;;;;4960600;28;20225;-71
2023/01/12 07:52:24;;;;;;;1.45;0.80;;;19.80;60.10;;;;;;4987655;28;20194;-71
2023/01/12 07:54:50;;;;;;;3.25;1.02;;;19.80;59.50;;;;;;4970707;28;20248;-71
2023/01/12 07:57:15;;;;;;;2.47;1.20;;;19.80;59.40;;;;;;4976350;28;20198;-71
2023/01/12 07:59:41;;;;;;;1.27;1.08;;;19.80;59.50;;;;;;4963867;28;20217;-71
2023/01/12 08:02:15;;;;;;;2.05;0.90;;;19.80;59.40;;;;;;4991179;28;20189;-71
2023/01/12 08:04:42;;;;;;;1.10;1.00;;;19.80;59.50;;;;;;4975000;28;20228;-71
2023/01/12 08:07:10;;;;;;;2.17;1.17;;;19.80;59.50;;;;;;4974012;28;20190;-71
2023/01/12 08:09:35;;;;;;;1.67;0.90;;;19.80;59.40;;;;;;4967963;28;20217;-71
2023/01/12 08:12:01;;;;;;;2.70;0.93;;;19.80;59.40;;;;;;4974690;28;20186;-71
2023/01/12 08:14:35;;;;;;;2.42;1.00;;;19.80;59.40;;;;;;4967067;28;20192;-71
2023/01/12 08:17:07;;;;;;;1.95;0.90;;;19.80;59.40;;;;;;4974808;28;20261;-71
2023/01/12 08:19:46;;;;;;;1.52;1.10;;;19.80;59.40;;;;;;4967648;28;20301;-71
2023/01/12 08:22:19;;;;;;;1.98;1.20;;;19.80;59.40;;;;;;4990839;28;20198;-71
2023/01/12 08:24:56;;;;;;;1.98;0.90;;;19.80;59.50;;;;;;4975828;28;20287;-71
2023/01/12 08:27:27;;;;;;;1.88;1.00;;;19.80;59.40;;;;;;4947999;29;20202;-71
2023/01/12 08:29:58;;;;;;;1.55;1.00;;;19.80;59.50;;;;;;4971009;28;20214;-71
2023/01/12 08:32:27;;;;;;;2.00;1.00;;;19.80;59.50;;;;;;4956317;28;20195;-71
2023/01/12 08:34:59;;;;;;;1.48;1.00;;;19.80;59.40;;;;;;4967791;28;20189;-71
2023/01/12 08:37:27;;;;;;;1.67;1.00;;;19.80;59.40;;;;;;4956456;28;20560;-71
2023/01/12 08:39:52;;;;;;;1.33;0.90;;;19.80;59.40;;;;;;4970627;28;20817;-71
2023/01/12 08:42:19;;;;;;;1.27;0.90;;;19.80;59.40;;;;;;4939226;29;20198;-71
2023/01/12 08:44:45;;;;;;;2.75;0.90;;;19.80;59.40;;;;;;4952464;28;20229;-71
2023/01/12 08:47:29;;;;;;;2.45;0.80;;;19.80;59.30;;;;;;4990553;28;20259;-71
2023/01/12 08:49:59;;;;;;;2.65;1.00;;;19.80;59.40;;;;;;4990106;28;20220;-71
2023/01/12 08:52:28;;;;;;;1.52;0.95;;;19.80;59.40;;;;;;4958001;28;20186;-71
2023/01/12 08:54:54;;;;;;;2.28;0.90;;;19.80;59.40;;;;;;4975307;28;20198;-71
2023/01/12 08:57:21;;;;;;;1.88;1.20;;;19.80;59.40;;;;;;4958059;28;20202;-71
2023/01/12 08:59:46;;;;;;;1.70;0.90;;;19.80;59.40;;;;;;4989936;28;20725;-71
2023/01/12 09:02:14;;;;;;;1.13;0.90;;;19.80;59.40;;;;;;4957964;28;20190;-71
2023/01/12 09:04:40;;;;;;;2.08;0.90;;;19.80;59.40;;;;;;4973945;28;20217;-71
2023/01/12 09:07:08;;;;;;;0.93;0.75;;;19.80;59.40;;;;;;4973725;28;20285;-71
2023/01/12 09:09:34;;;;;;;1.35;0.73;;;19.80;59.40;;;;;;4961566;28;20792;-70
2023/01/12 09:11:59;;;;;;;1.88;0.90;;;19.80;59.40;;;;;;4969890;28;20178;-71
2023/01/12 09:14:25;;;;;;;1.10;0.90;;;19.80;59.30;;;;;;4989780;28;20272;-71
2023/01/12 09:16:51;;;;;;;2.95;1.10;;;19.80;59.40;;;;;;4973723;28;20193;-71
2023/01/12 09:19:17;;;;;;;1.00;0.80;;;19.80;59.40;;;;;;4957212;28;20209;-70
2023/01/12 09:21:43;;;;;;;1.40;0.65;;;19.80;59.40;;;;;;4989846;28;20200;-70
2023/01/12 09:24:13;;;;;;;1.80;1.00;;;19.80;59.30;;;;;;4957305;28;20293;-70
2023/01/12 09:26:44;;;;;;;1.08;0.77;;;19.80;59.30;;;;;;4985300;28;20190;-71
2023/01/12 09:29:12;;;;;;;1.25;0.85;;;19.80;59.30;;;;;;4969885;28;20342;-71
2023/01/12 09:31:42;;;;;;;2.03;1.00;;;19.80;59.90;;;;;;4982749;28;20196;-71
2023/01/12 09:34:09;;;;;;;0.98;0.88;;;19.80;59.30;;;;;;4989556;28;20224;-71
2023/01/12 09:36:37;;;;;;;2.97;1.08;;;19.80;59.30;;;;;;4974320;28;20188;-71
2023/01/12 09:39:04;;;;;;;1.30;0.90;;;19.80;59.40;;;;;;4977639;28;20210;-71
2023/01/12 09:47:40;;;;;;;1.70;0.95;;;19.80;59.30;;;;;;4973472;28;20206;-71
2023/01/12 09:50:24;;;;;;;2.47;1.00;;;19.80;59.40;;;;;;4972896;28;20248;-71
2023/01/12 09:53:14;;;;;;;2.33;1.27;;;19.80;59.40;;;;;;4975535;28;20198;-71
2023/01/12 09:56:11;;;;;;;1.77;0.80;;;19.80;59.40;;;;;;4954845;28;20273;-71
2023/01/12 09:59:17;;;;;;;1.90;0.90;;;19.80;59.40;;;;;;4969419;28;20207;-71
2023/01/12 10:01:44;;;;;;;1.38;1.00;;;19.80;59.30;;;;;;4969645;28;20767;-71
2023/01/12 10:04:11;;;;;;;1.77;0.85;;;19.80;59.40;;;;;;4969568;28;20221;-71
2023/01/12 10:06:38;;;;;;;1.90;0.85;;;19.80;59.30;;;;;;4969301;28;20191;-71
2023/01/12 10:09:09;;;;;;;1.92;0.80;;;19.80;59.40;;;;;;4969802;28;20607;-71
2023/01/12 10:12:02;;;;;;;1.00;0.90;;;19.80;59.30;;;;;;4962354;28;20197;-71
2023/01/12 10:14:58;;;;;;;1.10;0.88;;;19.80;59.90;;;;;;4969437;28;20217;-71
2023/01/12 10:18:10;;;;;;;1.05;0.75;;;19.80;59.40;;;;;;4954974;29;20202;-71
2023/01/12 10:20:41;;;;;;;2.28;1.30;;;19.80;59.40;;;;;;4906514;29;20199;-71
2023/01/12 10:23:06;;;;;;;1.60;0.95;;;19.80;59.40;;;;;;4972055;28;20261;-71
2023/01/12 10:25:40;;;;;;;1.35;0.90;;;19.80;59.30;;;;;;4955583;28;20217;-71
2023/01/12 10:28:32;;;;;;;2.78;1.08;;;19.80;59.30;;;;;;4970889;28;20194;-71
2023/01/12 10:30:59;;;;;;;2.05;1.10;;;19.80;59.40;;;;;;5011491;22;20239;-67
2023/01/12 10:33:33;;;;;;;1.20;0.90;;;19.80;59.30;;;;;;4992923;28;20184;-66
2023/01/12 10:36:17;;;;;;;1.25;1.00;;;19.80;59.40;;;;;;4992569;28;20272;-66
2023/01/12 10:39:02;;;;;;;1.10;0.77;;;19.80;59.40;;;;;;4975523;28;20188;-66
2023/01/12 10:41:36;;;;;;;1.45;0.85;;;19.80;59.30;;;;;;4992841;28;20670;-66
2023/01/12 10:44:02;;;;;;;2.10;0.90;;;19.80;59.40;;;;;;4993020;28;20274;-66
2023/01/12 10:46:34;;;;;;;1.10;0.82;;;19.80;59.30;;;;;;4975466;28;20267;-67
2023/01/12 10:49:23;;;;;;;2.25;0.93;;;19.80;59.40;;;;;;4974607;28;20184;-67
2023/01/12 10:51:48;;;;;;;1.02;0.80;;;19.80;59.40;;;;;;4975915;28;20238;-67
2023/01/12 10:54:19;;;;;;;1.45;0.85;;;19.80;59.40;;;;;;4993144;28;20228;-66
2023/01/12 10:57:03;;;;;;;1.33;0.88;;;19.80;59.30;;;;;;4974838;28;20191;-67
2023/01/12 10:59:34;;;;;;;1.20;0.77;;;19.80;59.30;;;;;;4959342;28;20213;-66
2023/01/12 11:02:10;;;;;;;1.02;0.80;;;19.80;59.40;;;;;;4968010;28;20251;-66
2023/01/12 11:04:44;;;;;;;1.35;0.73;;;19.80;59.30;;;;;;4991773;28;20213;-66
2023/01/12 11:07:27;;;;;;;2.30;0.90;;;19.80;59.30;;;;;;4992373;28;20184;-67
2023/01/12 11:09:56;;;;;;;0.88;0.70;;;19.80;59.30;;;;;;4978152;28;20782;-66
2023/01/12 11:12:38;;;;;;;1.17;0.80;;;19.80;59.70;;;;;;4949532;28;20657;-66
2023/01/12 11:15:11;;;;;;;2.65;0.90;;;19.90;59.40;;;;;;4975770;28;20224;-66
2023/01/12 11:18:26;;;;;;;1.38;1.00;;;19.80;59.30;;;;;;4992695;28;20204;-66
2023/01/12 11:21:01;;;;;;;1.30;0.90;;;19.80;59.30;;;;;;4975571;28;20205;-67
2023/01/12 11:24:04;;;;;;;1.10;0.80;;;19.90;59.40;;;;;;4983469;28;20727;-66
2023/01/12 11:26:44;;;;;;;1.05;0.82;;;19.90;59.40;;;;;;4975485;28;20235;-67
2023/01/12 11:29:44;;;;;;;0.60;0.60;;;19.90;59.40;;;;;;4992379;28;20192;-66
2023/01/12 11:32:28;;;;;;;1.08;0.73;;;19.90;59.40;;;;;;4955683;28;20252;-66
2023/01/12 11:35:20;;;;;;;1.38;0.80;;;19.90;59.40;;;;;;4953590;28;20299;-66
2023/01/12 11:37:47;;;;;;;1.15;0.90;;;19.90;59.40;;;;;;4982529;28;20303;-67
2023/01/12 11:40:36;;;;;;;1.50;0.90;;;19.80;59.30;;;;;;4963066;28;20204;-66
2023/01/12 11:46:35;;;;;;;1.55;0.80;;;19.90;59.40;;;;;;4988654;28;20251;-66
2023/01/12 11:49:23;;;;;;;1.13;0.70;;;19.90;59.40;;;;;;4986724;28;20219;-66
2023/01/12 11:51:57;;;;;;;0.90;0.70;;;19.90;59.40;;;;;;4975348;28;20212;-67
2023/01/12 11:54:26;;;;;;;1.33;0.75;;;19.90;59.40;;;;;;4975047;28;20188;-66
2023/01/12 11:57:13;;;;;;;0.60;0.60;;;19.90;59.40;;;;;;4990801;28;20657;-66
2023/01/12 12:00:19;;;;;;;1.27;0.98;;;19.90;59.50;;;;;;4987569;28;20297;-66
2023/01/12 12:03:24;;;;;;;0.90;0.75;;;19.90;59.50;;;;;;4975436;28;20192;-66
2023/01/12 12:06:25;;;;;;;1.38;0.90;;;19.90;59.50;;;;;;4958750;28;20196;-66
2023/01/12 12:09:23;;;;;;;1.63;1.02;;;19.90;59.50;;;;;;4968188;28;20211;-66
2023/01/12 12:12:02;;;;;;;3.25;0.88;;;19.90;59.60;;;;;;4968124;28;20201;-67
2023/01/12 12:15:19;;;;;;;0.73;0.70;;;19.90;59.60;;;;;;4974672;28;20193;-67
2023/01/12 12:18:03;;;;;;;1.10;0.90;;;19.90;59.50;;;;;;4964132;28;20193;-66
2023/01/12 12:20:45;;;;;;;1.65;0.93;;;19.90;59.60;;;;;;4992869;28;20292;-67
2023/01/12 12:23:33;;;;;;;2.13;0.90;;;19.90;59.60;;;;;;4962223;28;20275;-67
2023/01/12 12:26:50;;;;;;;1.30;0.80;;;19.90;59.60;;;;;;4978624;28;20224;-67
2023/01/12 12:30:09;;;;;;;1.50;0.88;;;19.90;59.60;;;;;;4935660;28;20259;-67
2023/01/12 12:32:54;;;;;;;1.67;0.95;;;19.90;59.60;;;;;;4967183;28;20201;-67
2023/01/12 12:35:48;;;;;;;1.70;0.82;;;19.80;59.50;;;;;;4966168;28;20185;-67
2023/01/12 12:39:10;;;;;;;1.33;0.93;;;19.80;59.60;;;;;;4995310;28;20185;-67
2023/01/12 12:45:17;;;;;;;2.38;0.90;;;19.90;59.60;;;;;;4978060;28;20217;-67
2023/01/12 12:48:26;;;;;;;0.95;0.80;;;19.90;59.60;;;;;;4958436;28;20193;-66
2023/01/12 12:51:07;;;;;;;2.80;0.90;;;19.90;59.70;;;;;;4988560;28;20205;-67
2023/01/12 12:53:41;;;;;;;2.78;0.93;;;19.90;59.70;;;;;;4971045;28;20189;-67
2023/01/12 12:56:11;;;;;;;1.52;0.95;;;19.80;59.60;;;;;;4994506;28;20247;-67
2023/01/12 12:58:45;;;;;;;2.15;0.82;;;19.90;59.70;;;;;;4961036;28;20190;-67
2023/01/12 13:01:20;;;;;;;1.63;0.80;;;19.80;59.60;;;;;;4977691;28;20208;-67
2023/01/12 13:03:47;;;;;;;1.73;0.88;;;19.80;59.60;;;;;;4994149;28;20224;-65
2023/01/12 13:06:27;;;;;;;1.75;1.00;;;19.80;59.60;;;;;;4977621;28;20184;-66
2023/01/12 13:08:55;;;;;;;2.85;1.00;;;19.90;59.70;;;;;;4958373;28;20550;-68
2023/01/12 13:11:57;;;;;;;3.58;0.90;;;19.90;59.60;;;;;;4974684;28;20556;-67
2023/01/12 13:14:30;;;;;;;1.15;0.70;;;19.80;59.60;;;;;;4899391;29;20196;-67
2023/01/12 13:17:17;;;;;;;1.80;1.00;;;19.90;59.70;;;;;;4946875;28;20201;-67
2023/01/12 13:20:05;;;;;;;1.52;1.00;;;19.90;59.70;;;;;;4977400;28;20271;-67
2023/01/12 13:22:31;;;;;;;2.50;0.90;;;19.80;59.60;;;;;;4977375;28;20672;-67
2023/01/12 13:25:22;;;;;;;4.30;1.10;;;19.80;59.60;;;;;;4993548;28;20241;-67
2023/01/12 13:28:03;;;;;;;1.42;0.60;;;19.80;59.60;;;;;;4911134;28;20254;-67
2023/01/12 13:30:28;;;;;;;2.33;0.80;;;19.90;59.70;;;;;;4976724;28;20219;-67
2023/01/12 13:33:16;;;;;;;2.13;0.93;;;19.80;59.60;;;;;;4994607;28;20189;-67
2023/01/12 13:35:45;;;;;;;1.63;0.90;;;19.80;59.70;;;;;;4976988;28;20199;-67
2023/01/12 13:38:10;;;;;;;1.38;0.80;;;19.80;59.60;;;;;;4968988;28;20192;-67
2023/01/12 13:40:37;;;;;;;1.73;1.00;;;19.80;59.70;;;;;;4994175;28;20220;-67
2023/01/12 13:43:27;;;;;;;2.13;1.00;;;19.80;59.60;;;;;;4985238;28;20196;-67
2023/01/12 13:46:35;;;;;;;3.10;1.02;;;19.80;59.70;;;;;;4963671;28;20209;-67
2023/01/12 13:49:02;;;;;;;1.80;0.80;;;19.80;59.70;;;;;;4957552;28;20224;-67
2023/01/12 13:51:39;;;;;;;1.75;0.70;;;19.80;59.70;;;;;;4974948;28;20193;-67
2023/01/12 13:54:14;;;;;;;2.20;0.60;;;19.80;59.60;;;;;;4994127;28;20250;-67
2023/01/12 13:56:41;;;;;;;1.88;0.93;;;19.80;59.60;;;;;;4961108;28;20275;-67
2023/01/12 13:59:17;;;;;;;3.40;0.80;;;19.80;59.70;;;;;;4976838;28;20181;-67
2023/01/12 14:01:46;;;;;;;2.35;1.00;;;19.80;59.60;;;;;;4960590;28;20195;-66